sensor_id;sensor_type;location;lat;lon;timestamp;pressure;altitude;pressure_sealevel;temperature;humidity
46768;BME280;69007;48.978;18.066;2023-06-22T00:01:02;97885.19;;;19.81;100.00
46768;BME280;69007;48.978;18.066;2023-06-22T00:03:27;97868.41;;;19.68;100.00
46768;BME280;69007;48.978;18.066;2023-06-22T00:05:53;97876.16;;;19.66;100.00
46768;BME280;69007;48.978;18.066;2023-06-22T00:08:19;97900.78;;;19.77;100.00
46768;BME280;69007;48.978;18.066;2023-06-22T00:10:45;97886.09;;;19.67;100.00
46768;BME280;69007;48.978;18.066;2023-06-22T00:13:12;97887.34;;;19.61;100.00
46768;BME280;69007;48.978;18.066;2023-06-22T00:15:38;97883.94;;;19.56;100.00
46768;BME280;69007;48.978;18.066;2023-06-22T00:18:06;97912.03;;;19.58;100.00
46768;BME280;69007;48.978;18.066;2023-06-22T00:20:31;97890.03;;;19.44;100.00
46768;BME280;69007;48.978;18.066;2023-06-22T00:22:58;97905.78;;;19.43;100.00
46768;BME280;69007;48.978;18.066;2023-06-22T00:25:24;97904.78;;;19.39;100.00
46768;BME280;69007;48.978;18.066;2023-06-22T00:27:50;97906.53;;;19.35;100.00
46768;BME280;69007;48.978;18.066;2023-06-22T00:30:16;97926.25;;;19.42;100.00
46768;BME280;69007;48.978;18.066;2023-06-22T00:32:42;97918.75;;;19.43;100.00
46768;BME280;69007;48.978;18.066;2023-06-22T00:35:08;97919.56;;;19.43;100.00
46768;BME280;69007;48.978;18.066;2023-06-22T00:37:35;97918.47;;;19.53;100.00
46768;BME280;69007;48.978;18.066;2023-06-22T00:40:01;97924.69;;;19.59;100.00
46768;BME280;69007;48.978;18.066;2023-06-22T00:42:26;97911.69;;;19.59;100.00
46768;BME280;69007;48.978;18.066;2023-06-22T00:44:52;97929.06;;;19.60;100.00
46768;BME280;69007;48.978;18.066;2023-06-22T00:47:18;97932.16;;;19.58;100.00
46768;BME280;69007;48.978;18.066;2023-06-22T00:49:44;97920.13;;;19.54;100.00
46768;BME280;69007;48.978;18.066;2023-06-22T00:52:12;97913.59;;;19.50;100.00
46768;BME280;69007;48.978;18.066;2023-06-22T00:54:42;97927.28;;;19.55;100.00
46768;BME280;69007;48.978;18.066;2023-06-22T00:57:14;97910.16;;;19.44;100.00
46768;BME280;69007;48.978;18.066;2023-06-22T00:59:44;97917.50;;;19.49;100.00
46768;BME280;69007;48.978;18.066;2023-06-22T01:02:10;97907.59;;;19.48;100.00
46768;BME280;69007;48.978;18.066;2023-06-22T01:04:37;97911.50;;;19.47;100.00
46768;BME280;69007;48.978;18.066;2023-06-22T01:10:02;97910.84;;;19.50;100.00
46768;BME280;69007;48.978;18.066;2023-06-22T01:12:32;97903.56;;;19.54;100.00
46768;BME280;69007;48.978;18.066;2023-06-22T01:15:11;97877.50;;;19.38;100.00
46768;BME280;69007;48.978;18.066;2023-06-22T01:17:40;97893.75;;;19.39;100.00
46768;BME280;69007;48.978;18.066;2023-06-22T01:20:08;97878.78;;;19.31;100.00
46768;BME280;69007;48.978;18.066;2023-06-22T01:25:36;97881.91;;;19.39;100.00
46768;BME280;69007;48.978;18.066;2023-06-22T01:31:07;97883.94;;;19.24;100.00
46768;BME280;69007;48.978;18.066;2023-06-22T01:33:37;97864.22;;;19.08;100.00
46768;BME280;69007;48.978;18.066;2023-06-22T01:36:04;97871.03;;;19.11;100.00
46768;BME280;69007;48.978;18.066;2023-06-22T01:38:32;97858.88;;;19.12;100.00
46768;BME280;69007;48.978;18.066;2023-06-22T01:40:59;97876.88;;;19.09;100.00
46768;BME280;69007;48.978;18.066;2023-06-22T01:43:26;97865.91;;;18.95;100.00
46768;BME280;69007;48.978;18.066;2023-06-22T01:45:54;97859.91;;;18.93;100.00
46768;BME280;69007;48.978;18.066;2023-06-22T01:48:20;97885.34;;;18.90;100.00
46768;BME280;69007;48.978;18.066;2023-06-22T01:50:47;97878.22;;;18.89;100.00
46768;BME280;69007;48.978;18.066;2023-06-22T01:53:12;97874.53;;;18.80;100.00
46768;BME280;69007;48.978;18.066;2023-06-22T01:55:37;97861.81;;;18.70;100.00
46768;BME280;69007;48.978;18.066;2023-06-22T01:58:03;97885.25;;;18.82;100.00
46768;BME280;69007;48.978;18.066;2023-06-22T02:00:31;97876.88;;;18.87;100.00
46768;BME280;69007;48.978;18.066;2023-06-22T02:02:59;97881.47;;;18.91;100.00
46768;BME280;69007;48.978;18.066;2023-06-22T02:05:31;97857.91;;;18.85;100.00
46768;BME280;69007;48.978;18.066;2023-06-22T02:08:13;97870.56;;;18.86;100.00
46768;BME280;69007;48.978;18.066;2023-06-22T02:10:44;97857.00;;;18.76;100.00
46768;BME280;69007;48.978;18.066;2023-06-22T02:13:11;97870.13;;;18.79;100.00
46768;BME280;69007;48.978;18.066;2023-06-22T02:15:38;97854.16;;;18.67;100.00
46768;BME280;69007;48.978;18.066;2023-06-22T02:18:03;97874.41;;;18.63;100.00
46768;BME280;69007;48.978;18.066;2023-06-22T02:20:29;97864.34;;;18.58;100.00
46768;BME280;69007;48.978;18.066;2023-06-22T02:22:54;97859.19;;;18.65;100.00
46768;BME280;69007;48.978;18.066;2023-06-22T02:25:19;97884.06;;;18.74;100.00
46768;BME280;69007;48.978;18.066;2023-06-22T02:27:45;97860.88;;;18.75;100.00
46768;BME280;69007;48.978;18.066;2023-06-22T02:30:11;97850.59;;;18.67;100.00
46768;BME280;69007;48.978;18.066;2023-06-22T02:32:37;97849.69;;;18.71;100.00
46768;BME280;69007;48.978;18.066;2023-06-22T02:35:03;97864.84;;;18.83;100.00
46768;BME280;69007;48.978;18.066;2023-06-22T02:37:32;97855.81;;;18.68;100.00
46768;BME280;69007;48.978;18.066;2023-06-22T02:39:57;97864.38;;;18.67;100.00
46768;BME280;69007;48.978;18.066;2023-06-22T02:42:23;97861.00;;;18.70;100.00
46768;BME280;69007;48.978;18.066;2023-06-22T02:44:48;97879.06;;;18.76;100.00
46768;BME280;69007;48.978;18.066;2023-06-22T02:47:13;97863.06;;;18.64;100.00
46768;BME280;69007;48.978;18.066;2023-06-22T02:49:39;97880.44;;;18.65;100.00
46768;BME280;69007;48.978;18.066;2023-06-22T02:52:04;97893.91;;;18.66;100.00
46768;BME280;69007;48.978;18.066;2023-06-22T02:54:30;97884.81;;;18.66;100.00
46768;BME280;69007;48.978;18.066;2023-06-22T02:56:55;97883.06;;;18.70;100.00
46768;BME280;69007;48.978;18.066;2023-06-22T02:59:21;97864.88;;;18.69;100.00
46768;BME280;69007;48.978;18.066;2023-06-22T03:01:50;97873.88;;;18.74;100.00
46768;BME280;69007;48.978;18.066;2023-06-22T03:04:15;97875.47;;;18.75;100.00
46768;BME280;69007;48.978;18.066;2023-06-22T03:06:41;97879.25;;;18.79;100.00
46768;BME280;69007;48.978;18.066;2023-06-22T03:09:07;97874.31;;;18.90;100.00
46768;BME280;69007;48.978;18.066;2023-06-22T03:11:35;97867.38;;;18.79;100.00
46768;BME280;69007;48.978;18.066;2023-06-22T03:14:01;97888.00;;;18.82;100.00
46768;BME280;69007;48.978;18.066;2023-06-22T03:16:27;97878.41;;;18.79;100.00
46768;BME280;69007;48.978;18.066;2023-06-22T03:18:53;97898.50;;;18.93;100.00
46768;BME280;69007;48.978;18.066;2023-06-22T03:21:19;97897.00;;;18.87;100.00
46768;BME280;69007;48.978;18.066;2023-06-22T03:23:45;97900.28;;;18.89;100.00
46768;BME280;69007;48.978;18.066;2023-06-22T03:26:10;97888.72;;;18.87;100.00
46768;BME280;69007;48.978;18.066;2023-06-22T03:28:37;97891.88;;;18.94;100.00
46768;BME280;69007;48.978;18.066;2023-06-22T03:31:03;97890.09;;;18.99;100.00
46768;BME280;69007;48.978;18.066;2023-06-22T03:33:29;97901.88;;;19.13;100.00
46768;BME280;69007;48.978;18.066;2023-06-22T03:35:55;97895.25;;;19.14;100.00
46768;BME280;69007;48.978;18.066;2023-06-22T03:38:20;97901.91;;;19.22;100.00
46768;BME280;69007;48.978;18.066;2023-06-22T03:40:45;97888.44;;;19.20;100.00
46768;BME280;69007;48.978;18.066;2023-06-22T03:43:11;97907.63;;;19.25;100.00
46768;BME280;69007;48.978;18.066;2023-06-22T03:45:36;97894.34;;;19.27;100.00
46768;BME280;69007;48.978;18.066;2023-06-22T03:48:02;97908.00;;;19.32;100.00
46768;BME280;69007;48.978;18.066;2023-06-22T03:50:28;97897.16;;;19.36;100.00
46768;BME280;69007;48.978;18.066;2023-06-22T03:52:53;97892.34;;;19.50;100.00
46768;BME280;69007;48.978;18.066;2023-06-22T03:55:22;97898.72;;;19.60;100.00
46768;BME280;69007;48.978;18.066;2023-06-22T03:57:48;97895.94;;;19.60;100.00
46768;BME280;69007;48.978;18.066;2023-06-22T04:00:13;97905.72;;;19.66;100.00
46768;BME280;69007;48.978;18.066;2023-06-22T04:02:41;97904.13;;;19.74;100.00
46768;BME280;69007;48.978;18.066;2023-06-22T04:05:08;97922.88;;;19.85;100.00
46768;BME280;69007;48.978;18.066;2023-06-22T04:07:34;97919.66;;;19.92;100.00
46768;BME280;69007;48.978;18.066;2023-06-22T04:10:03;97916.41;;;19.90;100.00
46768;BME280;69007;48.978;18.066;2023-06-22T04:12:28;97913.19;;;19.97;100.00
46768;BME280;69007;48.978;18.066;2023-06-22T04:14:53;97913.78;;;19.85;100.00
46768;BME280;69007;48.978;18.066;2023-06-22T04:17:19;97913.59;;;19.81;100.00
46768;BME280;69007;48.978;18.066;2023-06-22T04:19:44;97899.31;;;19.79;100.00
46768;BME280;69007;48.978;18.066;2023-06-22T04:22:09;97913.91;;;19.80;100.00
46768;BME280;69007;48.978;18.066;2023-06-22T04:24:35;97912.16;;;19.84;100.00
46768;BME280;69007;48.978;18.066;2023-06-22T04:27:01;97895.38;;;19.72;100.00
46768;BME280;69007;48.978;18.066;2023-06-22T04:29:27;97912.66;;;19.86;100.00
46768;BME280;69007;48.978;18.066;2023-06-22T04:31:57;97894.09;;;19.78;100.00
46768;BME280;69007;48.978;18.066;2023-06-22T04:34:24;97911.34;;;19.83;100.00
46768;BME280;69007;48.978;18.066;2023-06-22T04:36:53;97909.94;;;19.95;100.00
46768;BME280;69007;48.978;18.066;2023-06-22T04:39:18;97921.41;;;19.88;100.00
46768;BME280;69007;48.978;18.066;2023-06-22T04:41:44;97922.31;;;19.75;100.00
46768;BME280;69007;48.978;18.066;2023-06-22T04:44:13;97914.25;;;19.78;100.00
46768;BME280;69007;48.978;18.066;2023-06-22T04:46:39;97911.28;;;19.75;100.00
46768;BME280;69007;48.978;18.066;2023-06-22T04:49:07;97924.66;;;19.81;100.00
46768;BME280;69007;48.978;18.066;2023-06-22T04:51:39;97914.31;;;19.64;100.00
46768;BME280;69007;48.978;18.066;2023-06-22T04:54:05;97922.16;;;19.71;100.00
46768;BME280;69007;48.978;18.066;2023-06-22T04:56:32;97922.13;;;19.62;100.00
46768;BME280;69007;48.978;18.066;2023-06-22T04:58:57;97913.84;;;19.62;100.00
46768;BME280;69007;48.978;18.066;2023-06-22T05:01:23;97927.81;;;19.66;100.00
46768;BME280;69007;48.978;18.066;2023-06-22T05:03:49;97914.75;;;19.49;100.00
46768;BME280;69007;48.978;18.066;2023-06-22T05:06:14;97942.69;;;19.56;100.00
46768;BME280;69007;48.978;18.066;2023-06-22T05:08:40;97928.72;;;19.52;100.00
46768;BME280;69007;48.978;18.066;2023-06-22T05:11:06;97945.84;;;19.63;100.00
46768;BME280;69007;48.978;18.066;2023-06-22T05:13:32;97925.75;;;19.72;100.00
46768;BME280;69007;48.978;18.066;2023-06-22T05:15:57;97935.50;;;19.78;100.00
46768;BME280;69007;48.978;18.066;2023-06-22T05:18:30;97938.19;;;19.92;100.00
46768;BME280;69007;48.978;18.066;2023-06-22T05:20:55;97947.91;;;19.89;100.00
46768;BME280;69007;48.978;18.066;2023-06-22T05:23:21;97950.19;;;19.87;100.00
46768;BME280;69007;48.978;18.066;2023-06-22T05:25:46;97951.16;;;19.91;100.00
46768;BME280;69007;48.978;18.066;2023-06-22T05:28:12;97956.38;;;19.93;100.00
46768;BME280;69007;48.978;18.066;2023-06-22T05:30:37;97942.03;;;19.82;100.00
46768;BME280;69007;48.978;18.066;2023-06-22T05:33:03;97950.06;;;20.01;100.00
46768;BME280;69007;48.978;18.066;2023-06-22T05:35:28;97956.94;;;20.21;100.00
46768;BME280;69007;48.978;18.066;2023-06-22T05:37:54;97964.63;;;20.33;100.00
46768;BME280;69007;48.978;18.066;2023-06-22T05:40:20;97952.78;;;20.41;100.00
46768;BME280;69007;48.978;18.066;2023-06-22T05:42:46;97961.41;;;20.57;100.00
46768;BME280;69007;48.978;18.066;2023-06-22T05:45:11;97958.38;;;20.67;100.00
46768;BME280;69007;48.978;18.066;2023-06-22T05:47:36;97947.44;;;20.44;100.00
46768;BME280;69007;48.978;18.066;2023-06-22T05:50:02;97933.56;;;20.36;100.00
46768;BME280;69007;48.978;18.066;2023-06-22T05:52:31;97963.41;;;20.65;100.00
46768;BME280;69007;48.978;18.066;2023-06-22T05:54:57;97970.25;;;20.76;100.00
46768;BME280;69007;48.978;18.066;2023-06-22T05:57:22;97948.13;;;20.68;100.00
46768;BME280;69007;48.978;18.066;2023-06-22T05:59:48;97962.47;;;20.87;100.00
46768;BME280;69007;48.978;18.066;2023-06-22T06:02:13;97952.38;;;20.83;100.00
46768;BME280;69007;48.978;18.066;2023-06-22T06:04:39;97969.28;;;20.90;100.00
46768;BME280;69007;48.978;18.066;2023-06-22T06:07:04;97951.53;;;20.82;100.00
46768;BME280;69007;48.978;18.066;2023-06-22T06:09:30;97954.31;;;21.08;100.00
46768;BME280;69007;48.978;18.066;2023-06-22T06:11:55;97969.91;;;21.22;100.00
46768;BME280;69007;48.978;18.066;2023-06-22T06:14:20;97969.09;;;21.39;100.00
46768;BME280;69007;48.978;18.066;2023-06-22T06:16:46;97979.34;;;21.29;100.00
46768;BME280;69007;48.978;18.066;2023-06-22T06:19:11;97970.41;;;21.15;100.00
46768;BME280;69007;48.978;18.066;2023-06-22T06:21:36;97973.34;;;21.10;100.00
46768;BME280;69007;48.978;18.066;2023-06-22T06:24:02;97994.84;;;21.13;100.00
46768;BME280;69007;48.978;18.066;2023-06-22T06:26:27;97979.69;;;21.02;100.00
46768;BME280;69007;48.978;18.066;2023-06-22T06:28:55;97982.31;;;20.98;100.00
46768;BME280;69007;48.978;18.066;2023-06-22T06:31:21;97964.25;;;21.09;100.00
46768;BME280;69007;48.978;18.066;2023-06-22T06:33:46;97950.38;;;21.18;100.00
46768;BME280;69007;48.978;18.066;2023-06-22T06:36:12;97981.31;;;21.29;100.00
46768;BME280;69007;48.978;18.066;2023-06-22T06:38:37;97967.47;;;21.38;100.00
46768;BME280;69007;48.978;18.066;2023-06-22T06:41:03;97947.91;;;21.43;100.00
46768;BME280;69007;48.978;18.066;2023-06-22T06:43:28;97946.72;;;21.70;100.00
46768;BME280;69007;48.978;18.066;2023-06-22T06:45:53;97950.06;;;21.84;100.00
46768;BME280;69007;48.978;18.066;2023-06-22T06:48:19;97935.94;;;21.77;100.00
46768;BME280;69007;48.978;18.066;2023-06-22T06:50:44;97945.31;;;21.55;100.00
46768;BME280;69007;48.978;18.066;2023-06-22T06:53:10;97972.34;;;21.49;100.00
46768;BME280;69007;48.978;18.066;2023-06-22T06:55:35;97952.94;;;21.67;100.00
46768;BME280;69007;48.978;18.066;2023-06-22T06:58:02;97937.41;;;21.83;100.00
46768;BME280;69007;48.978;18.066;2023-06-22T07:00:33;97940.66;;;22.15;100.00
46768;BME280;69007;48.978;18.066;2023-06-22T07:02:58;97937.22;;;22.18;100.00
46768;BME280;69007;48.978;18.066;2023-06-22T07:05:23;97940.13;;;22.31;100.00
46768;BME280;69007;48.978;18.066;2023-06-22T07:07:49;97959.16;;;22.41;100.00
46768;BME280;69007;48.978;18.066;2023-06-22T07:10:14;97939.28;;;22.30;100.00
46768;BME280;69007;48.978;18.066;2023-06-22T07:12:40;97931.94;;;22.25;100.00
46768;BME280;69007;48.978;18.066;2023-06-22T07:15:08;97934.78;;;22.47;100.00
46768;BME280;69007;48.978;18.066;2023-06-22T07:17:34;97928.25;;;22.51;100.00
46768;BME280;69007;48.978;18.066;2023-06-22T07:20:01;97940.38;;;22.68;100.00
46768;BME280;69007;48.978;18.066;2023-06-22T07:22:27;97938.66;;;22.96;100.00
46768;BME280;69007;48.978;18.066;2023-06-22T07:24:52;97941.41;;;23.39;100.00
46768;BME280;69007;48.978;18.066;2023-06-22T07:27:17;97951.63;;;23.59;100.00
46768;BME280;69007;48.978;18.066;2023-06-22T07:29:46;97929.44;;;23.71;100.00
46768;BME280;69007;48.978;18.066;2023-06-22T07:32:12;97927.56;;;23.76;100.00
46768;BME280;69007;48.978;18.066;2023-06-22T07:34:37;97937.25;;;24.27;100.00
46768;BME280;69007;48.978;18.066;2023-06-22T07:37:04;97937.22;;;24.64;100.00
46768;BME280;69007;48.978;18.066;2023-06-22T07:39:30;97945.81;;;24.72;100.00
46768;BME280;69007;48.978;18.066;2023-06-22T07:41:55;97929.22;;;25.04;100.00
46768;BME280;69007;48.978;18.066;2023-06-22T07:44:20;97940.44;;;25.48;100.00
46768;BME280;69007;48.978;18.066;2023-06-22T07:46:46;97943.41;;;25.87;100.00
46768;BME280;69007;48.978;18.066;2023-06-22T07:49:12;97942.53;;;25.83;100.00
46768;BME280;69007;48.978;18.066;2023-06-22T07:51:37;97928.78;;;25.74;100.00
46768;BME280;69007;48.978;18.066;2023-06-22T07:54:02;97930.03;;;25.92;100.00
46768;BME280;69007;48.978;18.066;2023-06-22T07:56:28;97925.09;;;26.02;100.00
46768;BME280;69007;48.978;18.066;2023-06-22T07:58:53;97937.97;;;25.90;100.00
46768;BME280;69007;48.978;18.066;2023-06-22T08:01:19;97942.63;;;25.86;100.00
46768;BME280;69007;48.978;18.066;2023-06-22T08:03:50;97936.22;;;25.70;100.00
46768;BME280;69007;48.978;18.066;2023-06-22T08:06:15;97925.66;;;25.47;100.00
46768;BME280;69007;48.978;18.066;2023-06-22T08:08:41;97937.19;;;25.62;100.00
46768;BME280;69007;48.978;18.066;2023-06-22T08:11:07;97936.31;;;25.73;100.00
46768;BME280;69007;48.978;18.066;2023-06-22T08:13:33;97938.63;;;25.55;100.00
46768;BME280;69007;48.978;18.066;2023-06-22T08:15:58;97918.19;;;25.35;100.00
46768;BME280;69007;48.978;18.066;2023-06-22T08:18:24;97928.72;;;25.42;100.00
46768;BME280;69007;48.978;18.066;2023-06-22T08:20:49;97935.75;;;25.52;100.00
46768;BME280;69007;48.978;18.066;2023-06-22T08:23:15;97922.75;;;25.56;100.00
46768;BME280;69007;48.978;18.066;2023-06-22T08:25:40;97936.06;;;25.63;100.00
46768;BME280;69007;48.978;18.066;2023-06-22T08:28:05;97936.78;;;25.75;100.00
46768;BME280;69007;48.978;18.066;2023-06-22T08:30:32;97947.66;;;25.81;100.00
46768;BME280;69007;48.978;18.066;2023-06-22T08:32:57;97946.69;;;25.89;100.00
46768;BME280;69007;48.978;18.066;2023-06-22T08:35:23;97937.34;;;25.97;100.00
46768;BME280;69007;48.978;18.066;2023-06-22T08:37:49;97916.72;;;26.18;100.00
46768;BME280;69007;48.978;18.066;2023-06-22T08:40:21;97935.53;;;26.56;100.00
46768;BME280;69007;48.978;18.066;2023-06-22T08:42:47;97937.16;;;26.57;100.00
46768;BME280;69007;48.978;18.066;2023-06-22T08:45:13;97924.44;;;26.40;100.00
46768;BME280;69007;48.978;18.066;2023-06-22T08:47:42;97916.13;;;26.44;100.00
46768;BME280;69007;48.978;18.066;2023-06-22T08:50:11;97924.59;;;26.63;100.00
46768;BME280;69007;48.978;18.066;2023-06-22T08:52:38;97914.28;;;26.67;100.00
46768;BME280;69007;48.978;18.066;2023-06-22T08:55:06;97928.44;;;26.94;100.00
46768;BME280;69007;48.978;18.066;2023-06-22T08:57:31;97919.59;;;26.73;100.00
46768;BME280;69007;48.978;18.066;2023-06-22T08:59:58;97924.50;;;26.79;100.00
46768;BME280;69007;48.978;18.066;2023-06-22T09:02:26;97930.38;;;26.74;100.00
46768;BME280;69007;48.978;18.066;2023-06-22T09:04:56;97915.91;;;26.69;100.00
46768;BME280;69007;48.978;18.066;2023-06-22T09:07:22;97916.38;;;26.90;100.00
46768;BME280;69007;48.978;18.066;2023-06-22T09:09:49;97923.28;;;26.96;100.00
46768;BME280;69007;48.978;18.066;2023-06-22T09:12:14;97913.28;;;26.95;100.00
46768;BME280;69007;48.978;18.066;2023-06-22T09:14:40;97911.81;;;27.01;100.00
46768;BME280;69007;48.978;18.066;2023-06-22T09:17:05;97910.63;;;27.22;100.00
46768;BME280;69007;48.978;18.066;2023-06-22T09:19:31;97923.56;;;27.11;100.00
46768;BME280;69007;48.978;18.066;2023-06-22T09:21:56;97908.19;;;27.20;100.00
46768;BME280;69007;48.978;18.066;2023-06-22T09:24:22;97902.50;;;27.33;100.00
46768;BME280;69007;48.978;18.066;2023-06-22T09:26:47;97897.31;;;27.35;100.00
46768;BME280;69007;48.978;18.066;2023-06-22T09:29:13;97920.56;;;27.39;100.00
46768;BME280;69007;48.978;18.066;2023-06-22T09:31:38;97905.66;;;27.31;100.00
46768;BME280;69007;48.978;18.066;2023-06-22T09:34:03;97902.25;;;27.22;100.00
46768;BME280;69007;48.978;18.066;2023-06-22T09:36:29;97894.31;;;27.24;100.00
46768;BME280;69007;48.978;18.066;2023-06-22T09:38:55;97895.72;;;27.14;100.00
46768;BME280;69007;48.978;18.066;2023-06-22T09:41:23;97906.44;;;27.32;100.00
46768;BME280;69007;48.978;18.066;2023-06-22T09:43:49;97908.72;;;27.26;100.00
46768;BME280;69007;48.978;18.066;2023-06-22T09:46:15;97900.19;;;27.19;100.00
46768;BME280;69007;48.978;18.066;2023-06-22T09:48:40;97901.19;;;27.50;100.00
46768;BME280;69007;48.978;18.066;2023-06-22T09:51:06;97895.34;;;27.58;100.00
46768;BME280;69007;48.978;18.066;2023-06-22T09:53:31;97899.53;;;27.68;100.00
46768;BME280;69007;48.978;18.066;2023-06-22T09:55:56;97905.25;;;27.75;100.00
46768;BME280;69007;48.978;18.066;2023-06-22T09:58:22;97895.75;;;27.57;100.00
46768;BME280;69007;48.978;18.066;2023-06-22T10:00:48;97884.56;;;27.57;100.00
46768;BME280;69007;48.978;18.066;2023-06-22T10:03:14;97894.75;;;27.69;100.00
46768;BME280;69007;48.978;18.066;2023-06-22T10:05:40;97889.09;;;27.65;100.00
46768;BME280;69007;48.978;18.066;2023-06-22T10:08:06;97891.91;;;27.88;100.00
46768;BME280;69007;48.978;18.066;2023-06-22T10:10:33;97875.66;;;27.74;100.00
46768;BME280;69007;48.978;18.066;2023-06-22T10:13:07;97885.78;;;27.83;100.00
46768;BME280;69007;48.978;18.066;2023-06-22T10:15:34;97882.31;;;27.89;100.00
46768;BME280;69007;48.978;18.066;2023-06-22T10:17:59;97876.34;;;27.91;100.00
46768;BME280;69007;48.978;18.066;2023-06-22T10:20:24;97863.69;;;27.74;100.00
46768;BME280;69007;48.978;18.066;2023-06-22T10:22:51;97877.09;;;27.88;100.00
46768;BME280;69007;48.978;18.066;2023-06-22T10:25:16;97873.38;;;27.80;100.00
46768;BME280;69007;48.978;18.066;2023-06-22T10:27:41;97862.31;;;27.87;100.00
46768;BME280;69007;48.978;18.066;2023-06-22T10:30:08;97858.25;;;27.85;100.00
46768;BME280;69007;48.978;18.066;2023-06-22T10:32:34;97856.03;;;27.71;100.00
46768;BME280;69007;48.978;18.066;2023-06-22T10:35:00;97837.84;;;27.81;100.00
46768;BME280;69007;48.978;18.066;2023-06-22T10:37:25;97855.09;;;27.86;100.00
46768;BME280;69007;48.978;18.066;2023-06-22T10:39:50;97861.94;;;27.89;100.00
46768;BME280;69007;48.978;18.066;2023-06-22T10:42:16;97864.78;;;27.92;100.00
46768;BME280;69007;48.978;18.066;2023-06-22T10:44:42;97855.31;;;27.97;100.00
46768;BME280;69007;48.978;18.066;2023-06-22T10:47:09;97851.31;;;27.98;99.33
46768;BME280;69007;48.978;18.066;2023-06-22T10:49:34;97849.81;;;28.04;100.00
46768;BME280;69007;48.978;18.066;2023-06-22T10:52:01;97855.34;;;28.01;98.93
46768;BME280;69007;48.978;18.066;2023-06-22T10:54:26;97845.50;;;28.10;96.85
46768;BME280;69007;48.978;18.066;2023-06-22T10:56:52;97854.69;;;28.11;93.78
46768;BME280;69007;48.978;18.066;2023-06-22T10:59:17;97841.59;;;28.15;96.36
46768;BME280;69007;48.978;18.066;2023-06-22T11:01:42;97862.13;;;28.26;94.76
46768;BME280;69007;48.978;18.066;2023-06-22T11:04:08;97848.06;;;28.23;93.08
46768;BME280;69007;48.978;18.066;2023-06-22T11:06:33;97855.84;;;28.33;93.39
46768;BME280;69007;48.978;18.066;2023-06-22T11:08:59;97853.56;;;28.42;91.81
46768;BME280;69007;48.978;18.066;2023-06-22T11:11:25;97849.91;;;28.38;95.75
46768;BME280;69007;48.978;18.066;2023-06-22T11:13:52;97839.75;;;28.26;90.36
46768;BME280;69007;48.978;18.066;2023-06-22T11:16:18;97830.13;;;28.24;91.52
46768;BME280;69007;48.978;18.066;2023-06-22T11:18:43;97839.50;;;28.39;92.09
46768;BME280;69007;48.978;18.066;2023-06-22T11:21:09;97839.34;;;28.55;93.92
46768;BME280;69007;48.978;18.066;2023-06-22T11:23:34;97835.47;;;28.63;88.76
46768;BME280;69007;48.978;18.066;2023-06-22T11:25:59;97827.88;;;28.63;90.11
46768;BME280;69007;48.978;18.066;2023-06-22T11:28:27;97825.09;;;28.67;89.56
46768;BME280;69007;48.978;18.066;2023-06-22T11:30:53;97823.97;;;28.72;85.86
46768;BME280;69007;48.978;18.066;2023-06-22T11:33:18;97817.31;;;28.83;87.47
46768;BME280;69007;48.978;18.066;2023-06-22T11:35:44;97819.69;;;28.81;85.23
46768;BME280;69007;48.978;18.066;2023-06-22T11:38:09;97817.94;;;28.70;83.23
46768;BME280;69007;48.978;18.066;2023-06-22T11:40:35;97823.16;;;28.71;83.18
46768;BME280;69007;48.978;18.066;2023-06-22T11:43:00;97790.63;;;28.59;85.00
46768;BME280;69007;48.978;18.066;2023-06-22T11:45:26;97798.78;;;28.72;85.05
46768;BME280;69007;48.978;18.066;2023-06-22T11:47:52;97801.72;;;28.82;82.48
46768;BME280;69007;48.978;18.066;2023-06-22T11:50:17;97809.31;;;28.85;82.99
46768;BME280;69007;48.978;18.066;2023-06-22T11:52:42;97796.50;;;28.81;81.12
46768;BME280;69007;48.978;18.066;2023-06-22T11:55:08;97797.44;;;28.96;83.91
46768;BME280;69007;48.978;18.066;2023-06-22T11:57:35;97780.69;;;29.03;87.29
46768;BME280;69007;48.978;18.066;2023-06-22T12:00:02;97792.88;;;29.18;79.79
46768;BME280;69007;48.978;18.066;2023-06-22T12:02:31;97783.44;;;28.96;76.32
46768;BME280;69007;48.978;18.066;2023-06-22T12:04:57;97784.34;;;29.07;77.72
46768;BME280;69007;48.978;18.066;2023-06-22T12:07:23;97786.50;;;29.21;75.26
46768;BME280;69007;48.978;18.066;2023-06-22T12:09:49;97784.03;;;29.16;75.36
46768;BME280;69007;48.978;18.066;2023-06-22T12:12:15;97788.81;;;29.15;75.51
46768;BME280;69007;48.978;18.066;2023-06-22T12:14:40;97767.94;;;29.06;77.38
46768;BME280;69007;48.978;18.066;2023-06-22T12:17:05;97781.34;;;29.27;77.50
46768;BME280;69007;48.978;18.066;2023-06-22T12:19:31;97762.97;;;29.29;78.98
46768;BME280;69007;48.978;18.066;2023-06-22T12:21:57;97758.94;;;29.27;79.20
46768;BME280;69007;48.978;18.066;2023-06-22T12:24:22;97773.84;;;29.38;81.20
46768;BME280;69007;48.978;18.066;2023-06-22T12:26:48;97763.47;;;29.42;84.69
46768;BME280;69007;48.978;18.066;2023-06-22T12:29:14;97773.88;;;29.41;83.34
46768;BME280;69007;48.978;18.066;2023-06-22T12:31:39;97764.97;;;29.29;82.21
46768;BME280;69007;48.978;18.066;2023-06-22T12:34:04;97765.00;;;29.32;79.99
46768;BME280;69007;48.978;18.066;2023-06-22T12:36:30;97762.28;;;29.43;76.09
46768;BME280;69007;48.978;18.066;2023-06-22T12:38:55;97760.38;;;29.54;79.26
46768;BME280;69007;48.978;18.066;2023-06-22T12:41:20;97768.00;;;29.57;73.73
46768;BME280;69007;48.978;18.066;2023-06-22T12:43:46;97767.59;;;29.55;73.83